Acu, Brazil
Current Conditions -  °F | °C
As of 4:00 PM on Monday 22 Dec 2014 (Local Time) from SBNT Reporting Station
Scattered Clouds Scattered Clouds  
Wind Chill: 84°   Ceiling: Unl
Heat Index: 88°   Visibility: 6mi
Dew Point: 70°   Wind: 15mph
Humidity: 62%   Direction: 110°ESE
Pressure: 29.85"   Gusts: NA
Location:  5.58°S, 36.91°W
Report Text: SBNT 221900Z 11013KT 9999 SCT023 29/21 Q1011
Loading
Personal Weather Stations






























Interactive Weather Map New forecast layout! Learn more

10-Day Weather Forecast

Advertisements
Track Severe Weather on mobile